createdAt,value
2023-03-12T00:00:26.174Z,1.03
2023-03-12T00:03:14.604Z,0.90
2023-03-12T00:06:10.652Z,0.90
2023-03-12T00:09:01.991Z,0.80
2023-03-12T00:11:50.249Z,0.90
2023-03-12T00:14:40.733Z,1.00
2023-03-12T00:17:30.441Z,0.83
2023-03-12T00:20:19.010Z,0.73
2023-03-12T00:23:07.636Z,0.90
2023-03-12T00:25:55.798Z,0.90
2023-03-12T00:28:44.502Z,0.83
2023-03-12T00:31:34.951Z,1.10
2023-03-12T00:34:23.208Z,0.90
2023-03-12T00:37:11.445Z,0.90
2023-03-12T00:39:59.973Z,0.83
2023-03-12T00:42:48.157Z,0.80
2023-03-12T00:45:36.435Z,0.70
2023-03-12T00:48:26.342Z,0.73
2023-03-12T00:51:14.596Z,1.00
2023-03-12T00:54:02.810Z,0.93
2023-03-12T00:56:51.122Z,1.00
2023-03-12T00:59:40.596Z,0.80
2023-03-12T01:02:29.129Z,0.90
2023-03-12T01:05:19.499Z,0.90
2023-03-12T01:08:08.715Z,0.70
2023-03-12T01:10:56.934Z,0.80
2023-03-12T01:13:45.141Z,0.90
2023-03-12T01:16:33.469Z,0.87
2023-03-12T01:19:21.725Z,0.80
2023-03-12T01:22:11.344Z,0.93
2023-03-12T01:24:59.579Z,0.80
2023-03-12T01:27:47.812Z,0.93
2023-03-12T01:30:36.133Z,0.77
2023-03-12T01:33:24.346Z,0.80
2023-03-12T01:36:19.308Z,0.70
2023-03-12T01:39:08.991Z,1.00
2023-03-12T01:41:57.186Z,1.07
2023-03-12T01:44:56.047Z,0.80
2023-03-12T01:47:44.263Z,0.90
2023-03-12T01:50:32.543Z,0.97
2023-03-12T01:53:20.940Z,0.90
2023-03-12T01:56:11.561Z,0.93
2023-03-12T01:59:01.965Z,0.80
2023-03-12T02:01:51.518Z,0.80
2023-03-12T02:04:40.931Z,1.07
2023-03-12T02:07:29.182Z,0.70
2023-03-12T02:10:18.261Z,0.90
2023-03-12T02:13:08.017Z,0.82
2023-03-12T02:15:56.305Z,0.87
2023-03-12T02:18:45.380Z,0.80
2023-03-12T02:21:35.945Z,0.80
2023-03-12T02:24:32.093Z,0.67
2023-03-12T02:27:23.668Z,0.80
2023-03-12T02:30:16.064Z,0.80
2023-03-12T02:33:08.055Z,0.80
2023-03-12T02:35:56.875Z,0.83
2023-03-12T02:38:47.865Z,0.70
2023-03-12T02:41:39.121Z,0.80
2023-03-12T02:44:31.333Z,0.80
2023-03-12T02:47:19.568Z,0.80
2023-03-12T02:50:08.921Z,0.87
2023-03-12T02:52:57.115Z,0.80
2023-03-12T02:55:45.304Z,0.90
2023-03-12T02:58:33.678Z,0.87
2023-03-12T03:01:23.356Z,0.73
2023-03-12T03:04:13.358Z,1.00
2023-03-12T03:07:01.933Z,0.70
2023-03-12T03:09:50.166Z,0.80
2023-03-12T03:12:38.381Z,0.80
2023-03-12T03:15:27.325Z,0.70
2023-03-12T03:18:16.944Z,0.83
2023-03-12T03:21:07.207Z,0.80
2023-03-12T03:23:55.538Z,0.97
2023-03-12T03:26:44.251Z,0.87
2023-03-12T03:29:32.504Z,0.77
2023-03-12T03:32:20.884Z,0.90
2023-03-12T03:35:11.339Z,0.90
2023-03-12T03:37:59.642Z,0.80
2023-03-12T03:40:47.837Z,0.90
2023-03-12T03:43:36.154Z,1.10
2023-03-12T03:46:24.460Z,0.90
2023-03-12T03:49:12.655Z,0.80
2023-03-12T03:52:02.217Z,1.00
2023-03-12T03:54:50.445Z,0.90
2023-03-12T03:57:38.721Z,0.90
2023-03-12T04:00:27.042Z,0.87
2023-03-12T04:03:15.541Z,0.90
2023-03-12T04:06:06.265Z,1.00
2023-03-12T04:08:55.806Z,0.73
2023-03-12T04:11:44.098Z,0.90
2023-03-12T04:14:32.339Z,0.90
2023-03-12T04:17:20.820Z,0.90
2023-03-12T04:20:11.254Z,0.90
2023-03-12T04:23:01.377Z,1.10
2023-03-12T04:25:50.979Z,0.80
2023-03-12T04:28:39.528Z,0.87
2023-03-12T04:31:27.836Z,0.90
2023-03-12T04:34:16.095Z,0.90
2023-03-12T04:37:04.832Z,0.90
2023-03-12T04:39:52.992Z,0.90
2023-03-12T04:42:42.576Z,0.80
2023-03-12T04:45:30.738Z,0.90
2023-03-12T04:48:18.967Z,0.90
2023-03-12T04:51:07.427Z,1.00
2023-03-12T04:53:55.649Z,0.87
2023-03-12T04:56:44.071Z,0.80
2023-03-12T04:59:33.697Z,0.90
2023-03-12T05:02:21.944Z,0.90
2023-03-12T05:05:12.506Z,1.10
2023-03-12T05:08:00.705Z,0.90
2023-03-12T05:10:49.033Z,0.97
2023-03-12T05:13:37.286Z,0.80
2023-03-12T05:16:27.972Z,0.90
2023-03-12T05:19:16.716Z,0.90
2023-03-12T05:22:04.949Z,1.00
2023-03-12T05:24:53.281Z,0.90
2023-03-12T05:27:41.542Z,1.10
2023-03-12T05:30:29.878Z,0.97
2023-03-12T05:33:19.487Z,0.90
2023-03-12T05:36:08.969Z,0.87
2023-03-12T05:38:57.347Z,0.80
2023-03-12T05:41:45.654Z,0.93
2023-03-12T05:44:35.515Z,1.03
2023-03-12T05:47:23.929Z,1.00
2023-03-12T05:50:13.953Z,1.00
2023-03-12T05:53:02.279Z,0.90
2023-03-12T05:55:50.652Z,0.97
2023-03-12T05:58:39.500Z,0.87
2023-03-12T06:01:29.811Z,1.10
2023-03-12T06:04:18.058Z,1.00
2023-03-12T06:07:07.679Z,1.03
2023-03-12T06:09:55.916Z,0.93
2023-03-12T06:12:44.218Z,0.70
2023-03-12T06:15:32.651Z,0.80
2023-03-12T06:18:20.878Z,0.90
2023-03-12T06:21:11.233Z,0.90
2023-03-12T06:24:01.398Z,0.80
2023-03-12T06:26:49.629Z,0.93
2023-03-12T06:29:37.931Z,1.00
2023-03-12T06:32:26.217Z,1.07
2023-03-12T06:35:14.555Z,0.93
2023-03-12T06:38:02.774Z,0.97
2023-03-12T06:41:02.684Z,1.00
2023-03-12T06:43:50.935Z,0.90
2023-03-12T06:46:39.329Z,1.15
2023-03-12T06:49:32.175Z,0.97
2023-03-12T06:52:20.452Z,1.17
2023-03-12T06:55:09.095Z,0.90
2023-03-12T06:57:58.659Z,0.97
2023-03-12T07:00:46.965Z,1.00
2023-03-12T07:03:35.694Z,0.90
2023-03-12T07:06:25.825Z,1.00
2023-03-12T07:09:14.116Z,1.20
2023-03-12T07:12:04.286Z,1.20
2023-03-12T07:14:53.870Z,1.00
2023-03-12T07:17:42.217Z,0.90
2023-03-12T07:20:30.492Z,1.20
2023-03-12T07:23:18.646Z,0.90
2023-03-12T07:26:07.519Z,1.00
2023-03-12T07:28:55.715Z,1.00
2023-03-12T07:31:45.635Z,1.00
2023-03-12T07:34:33.985Z,1.00
2023-03-12T07:37:22.556Z,1.10
2023-03-12T07:40:12.307Z,1.00
2023-03-12T07:43:00.657Z,1.10
2023-03-12T07:45:49.695Z,1.20
2023-03-12T07:48:42.083Z,1.20
2023-03-12T07:51:32.165Z,1.03
2023-03-12T07:54:20.487Z,1.20
2023-03-12T07:57:08.847Z,1.10
2023-03-12T07:59:57.255Z,1.00
2023-03-12T08:02:45.816Z,1.10
2023-03-12T08:05:35.523Z,1.00
2023-03-12T08:08:23.808Z,1.00
2023-03-12T08:11:12.218Z,1.00
2023-03-12T08:14:00.408Z,0.90
2023-03-12T08:16:48.754Z,1.00
2023-03-12T08:19:37.523Z,1.00
2023-03-12T08:22:27.265Z,0.90
2023-03-12T08:25:16.137Z,1.00
2023-03-12T08:28:04.679Z,1.00
2023-03-12T08:30:55.055Z,1.13
2023-03-12T08:33:43.757Z,1.00
2023-03-12T08:36:32.112Z,1.10
2023-03-12T08:39:21.807Z,1.00
2023-03-12T08:42:09.992Z,0.90
2023-03-12T08:44:58.232Z,0.87
2023-03-12T08:47:46.564Z,1.10
2023-03-12T08:50:34.918Z,1.00
2023-03-12T08:53:23.946Z,0.90
2023-03-12T08:56:13.531Z,1.03
2023-03-12T08:59:01.817Z,1.00
2023-03-12T09:01:51.545Z,1.10
2023-03-12T09:04:39.857Z,0.90
2023-03-12T09:07:28.112Z,0.90
2023-03-12T09:10:16.386Z,0.80
2023-03-12T09:13:06.787Z,0.90
2023-03-12T09:16:00.172Z,0.80
2023-03-12T09:18:48.374Z,1.00
2023-03-12T09:21:36.712Z,0.97
2023-03-12T09:24:25.252Z,0.90
2023-03-12T09:27:13.527Z,0.83
2023-03-12T09:30:03.161Z,0.80
2023-03-12T09:32:51.392Z,0.90
2023-03-12T09:35:39.738Z,0.80
2023-03-12T09:38:28.364Z,1.00
2023-03-12T09:41:20.871Z,0.97
2023-03-12T09:44:16.866Z,0.80
2023-03-12T09:47:12.612Z,1.00
2023-03-12T09:50:04.250Z,0.90
2023-03-12T09:52:58.052Z,0.90
2023-03-12T09:55:50.345Z,0.80
2023-03-12T09:58:40.168Z,0.70
2023-03-12T10:01:37.719Z,0.80
2023-03-12T10:04:52.358Z,1.00
2023-03-12T10:07:49.465Z,0.87
2023-03-12T10:10:52.372Z,0.90
2023-03-12T10:13:51.540Z,0.70
2023-03-12T10:16:53.032Z,0.80
2023-03-12T10:20:00.812Z,0.97
2023-03-12T10:22:57.732Z,0.77
2023-03-12T10:25:51.788Z,0.90
2023-03-12T10:28:44.462Z,0.80
2023-03-12T10:31:36.577Z,0.90
2023-03-12T10:34:30.314Z,0.97
2023-03-12T10:37:24.150Z,0.77
2023-03-12T10:40:16.106Z,0.83
2023-03-12T10:43:07.182Z,0.80
2023-03-12T10:46:05.931Z,0.87
2023-03-12T10:49:31.477Z,0.80
2023-03-12T10:52:22.467Z,0.70
2023-03-12T10:55:22.225Z,0.90
2023-03-12T10:58:24.849Z,0.90
2023-03-12T11:01:21.989Z,1.20
2023-03-12T11:04:17.732Z,0.80
2023-03-12T11:07:17.913Z,0.70
2023-03-12T11:10:26.821Z,0.70
2023-03-12T11:13:30.273Z,0.83
2023-03-12T11:16:30.793Z,0.70
2023-03-12T11:19:30.283Z,1.20
2023-03-12T11:22:30.700Z,0.83
2023-03-12T11:25:23.742Z,0.70
2023-03-12T11:28:24.578Z,0.90
2023-03-12T11:31:21.795Z,0.73
2023-03-12T11:34:21.858Z,1.20
2023-03-12T11:37:16.552Z,1.10
2023-03-12T11:40:27.351Z,0.90
2023-03-12T11:43:42.101Z,0.80
2023-03-12T11:46:43.797Z,1.03
2023-03-12T11:49:43.901Z,0.90
2023-03-12T11:52:43.848Z,0.83
2023-03-12T11:55:58.674Z,1.13
2023-03-12T11:59:10.560Z,1.07
2023-03-12T12:07:50.475Z,0.80
2023-03-12T12:10:50.086Z,1.30
2023-03-12T12:13:49.471Z,1.40
2023-03-12T12:16:51.231Z,1.70
2023-03-12T12:19:54.118Z,1.37
2023-03-12T12:22:55.505Z,1.20
2023-03-12T12:26:11.426Z,1.30
2023-03-12T12:29:15.222Z,1.27
2023-03-12T12:32:05.219Z,1.33
2023-03-12T12:35:16.773Z,1.37
2023-03-12T12:38:12.733Z,1.40
2023-03-12T12:41:08.390Z,1.43
2023-03-12T12:44:00.496Z,2.00
2023-03-12T12:46:52.116Z,1.40
2023-03-12T12:49:44.904Z,1.20
2023-03-12T12:52:33.493Z,1.23
2023-03-12T12:55:28.183Z,1.30
2023-03-12T12:58:23.378Z,1.23
2023-03-12T13:01:12.036Z,1.10
2023-03-12T13:04:04.719Z,1.40
2023-03-12T13:06:59.346Z,1.73
2023-03-12T13:09:52.328Z,1.77
2023-03-12T13:12:51.719Z,1.63
2023-03-12T13:15:43.732Z,2.30
2023-03-12T13:18:33.450Z,2.17
2023-03-12T13:21:27.288Z,2.30
2023-03-12T13:24:23.683Z,1.67
2023-03-12T13:27:18.949Z,1.50
2023-03-12T13:30:45.999Z,1.53
2023-03-12T13:33:45.477Z,1.70
2023-03-12T13:36:38.514Z,1.60
2023-03-12T13:39:32.092Z,1.60
2023-03-12T13:42:42.815Z,1.40
2023-03-12T13:45:32.014Z,1.37
2023-03-12T13:48:23.735Z,1.40
2023-03-12T13:51:16.995Z,1.37
2023-03-12T13:54:05.799Z,1.40
2023-03-12T13:57:00.780Z,1.47
2023-03-12T13:59:51.519Z,1.50
2023-03-12T14:02:45.324Z,1.27
2023-03-12T14:05:45.792Z,1.00
2023-03-12T14:08:54.932Z,1.23
2023-03-12T14:11:54.520Z,1.17
2023-03-12T14:15:15.665Z,1.10
2023-03-12T14:18:12.845Z,0.90
2023-03-12T14:21:08.041Z,1.03
2023-03-12T14:23:59.205Z,1.27
2023-03-12T14:26:48.258Z,1.00
2023-03-12T14:29:39.904Z,1.00
2023-03-12T14:32:32.432Z,1.20
2023-03-12T14:35:23.380Z,1.00
2023-03-12T14:38:19.040Z,1.40
2023-03-12T14:41:13.677Z,1.20
2023-03-12T14:44:08.203Z,1.30
2023-03-12T14:47:01.564Z,1.30
2023-03-12T14:49:49.952Z,1.43
2023-03-12T14:52:38.269Z,1.40
2023-03-12T14:55:27.963Z,1.40
2023-03-12T14:58:18.886Z,1.23
2023-03-12T15:01:09.310Z,1.20
2023-03-12T15:04:01.360Z,1.23
2023-03-12T15:06:51.079Z,1.40
2023-03-12T15:09:42.366Z,1.43
2023-03-12T15:12:35.284Z,1.70
2023-03-12T15:15:32.814Z,1.80
2023-03-12T15:18:25.631Z,1.50
2023-03-12T15:21:14.553Z,1.50
2023-03-12T15:24:03.738Z,1.70
2023-03-12T15:26:51.965Z,1.60
2023-03-12T15:29:43.366Z,1.97
2023-03-12T15:32:32.257Z,1.80
2023-03-12T15:35:26.600Z,1.60
2023-03-12T15:38:17.079Z,1.63
2023-03-12T15:41:10.146Z,1.50
2023-03-12T15:44:00.738Z,1.37
2023-03-12T15:46:53.669Z,1.40
2023-03-12T15:49:42.548Z,1.30
2023-03-12T15:52:33.182Z,1.10
2023-03-12T15:55:27.151Z,1.33
2023-03-12T15:58:27.318Z,1.30
2023-03-12T16:01:16.734Z,1.50
2023-03-12T16:04:06.385Z,1.30
2023-03-12T16:06:54.851Z,1.33
2023-03-12T16:09:43.509Z,1.50
2023-03-12T16:12:32.036Z,1.40
2023-03-12T16:15:27.293Z,1.23
2023-03-12T16:18:17.014Z,1.57
2023-03-12T16:21:08.455Z,1.30
2023-03-12T16:23:56.644Z,1.30
2023-03-12T16:26:49.493Z,1.20
2023-03-12T16:29:39.629Z,1.10
2023-03-12T16:32:27.901Z,1.83
2023-03-12T16:35:18.710Z,1.37
2023-03-12T16:38:08.339Z,1.57
2023-03-12T16:40:57.003Z,1.47
2023-03-12T16:43:49.275Z,1.30
2023-03-12T16:46:37.595Z,1.30
2023-03-12T16:49:25.901Z,1.60
2023-03-12T16:52:19.828Z,1.30
2023-03-12T16:55:10.503Z,1.50
2023-03-12T16:58:01.205Z,1.33
2023-03-12T17:00:51.268Z,1.27
2023-03-12T17:03:42.404Z,1.50
2023-03-12T17:06:31.122Z,2.13
2023-03-12T17:09:20.614Z,2.90
2023-03-12T17:12:19.568Z,3.80
2023-03-12T17:15:14.315Z,4.17
2023-03-12T17:18:04.455Z,4.50
2023-03-12T17:20:52.720Z,4.23
2023-03-12T17:23:40.913Z,4.73
2023-03-12T17:26:29.257Z,4.40
2023-03-12T17:29:18.879Z,4.63
2023-03-12T17:32:07.294Z,3.97
2023-03-12T17:35:03.131Z,4.17
2023-03-12T17:37:51.399Z,4.00
2023-03-12T17:40:41.480Z,4.43
2023-03-12T17:43:29.770Z,4.10
2023-03-12T17:46:19.418Z,4.30
2023-03-12T17:49:07.649Z,4.40
2023-03-12T17:51:56.044Z,3.90
2023-03-12T17:54:44.263Z,3.53
2023-03-12T17:57:32.530Z,3.53
2023-03-12T18:00:23.013Z,3.60
2023-03-12T18:03:12.615Z,3.50
2023-03-12T18:06:00.925Z,3.43
2023-03-12T18:08:49.166Z,3.00
2023-03-12T18:11:37.531Z,3.13
2023-03-12T18:14:25.769Z,3.40
2023-03-12T18:17:14.026Z,2.80
2023-03-12T18:20:08.469Z,2.73
2023-03-12T18:22:56.708Z,2.60
2023-03-12T18:25:45.615Z,2.60
2023-03-12T18:28:33.852Z,2.60
2023-03-12T18:31:22.052Z,2.33
2023-03-12T18:34:10.484Z,2.43
2023-03-12T18:36:59.988Z,2.60
2023-03-12T18:39:48.411Z,3.23
2023-03-12T18:42:36.635Z,7.50
2023-03-12T18:45:24.890Z,8.20
2023-03-12T18:48:13.178Z,8.17
2023-03-12T18:51:01.464Z,7.83
2023-03-12T18:53:51.102Z,7.20
2023-03-12T18:56:40.948Z,6.50
2023-03-12T18:59:31.880Z,6.90
2023-03-12T19:02:20.543Z,6.80
2023-03-12T19:05:11.001Z,6.13
2023-03-12T19:07:59.453Z,5.47
2023-03-12T19:10:49.158Z,5.20
2023-03-12T19:13:37.671Z,5.53
2023-03-12T19:16:25.940Z,5.33
2023-03-12T19:19:14.135Z,4.97
2023-03-12T19:22:02.399Z,4.87
2023-03-12T19:24:50.578Z,4.30
2023-03-12T19:27:40.193Z,3.90
2023-03-12T19:30:30.657Z,3.73
2023-03-12T19:33:18.887Z,4.20
2023-03-12T19:36:08.013Z,4.40
2023-03-12T19:38:56.188Z,4.63
2023-03-12T19:41:44.497Z,4.67
2023-03-12T19:44:36.356Z,4.50
2023-03-12T19:47:24.633Z,3.83
2023-03-12T19:50:13.702Z,4.10
2023-03-12T19:53:02.126Z,3.97
2023-03-12T19:55:50.787Z,4.20
2023-03-12T19:58:38.986Z,3.80
2023-03-12T20:01:28.701Z,4.10
2023-03-12T20:04:16.977Z,3.23
2023-03-12T20:07:05.385Z,3.30
2023-03-12T20:09:53.616Z,3.77
2023-03-12T20:12:41.783Z,3.50
2023-03-12T20:15:30.059Z,3.33
2023-03-12T20:18:19.586Z,3.57
2023-03-12T20:21:07.892Z,3.10
2023-03-12T20:23:56.563Z,3.43
2023-03-12T20:26:45.438Z,2.83
2023-03-12T20:29:33.970Z,3.30
2023-03-12T20:32:22.149Z,3.00
2023-03-12T20:35:12.170Z,2.87
2023-03-12T20:38:00.521Z,2.53
2023-03-12T20:40:48.682Z,2.70
2023-03-12T20:43:37.014Z,2.70
2023-03-12T20:46:25.452Z,2.67
2023-03-12T20:49:13.795Z,2.70
2023-03-12T20:52:03.503Z,2.60
2023-03-12T20:54:51.737Z,2.93
2023-03-12T20:57:40.010Z,2.20
2023-03-12T21:00:28.232Z,2.50
2023-03-12T21:03:17.274Z,2.80
2023-03-12T21:06:06.068Z,2.53
2023-03-12T21:08:56.448Z,2.50
2023-03-12T21:11:44.617Z,2.63
2023-03-12T21:14:32.945Z,2.50
2023-03-12T21:17:21.197Z,2.40
2023-03-12T21:20:12.992Z,2.30
2023-03-12T21:23:01.663Z,2.70
2023-03-12T21:25:58.923Z,2.30
2023-03-12T21:28:47.308Z,2.40
2023-03-12T21:31:35.829Z,2.50
2023-03-12T21:34:24.585Z,2.63
2023-03-12T21:37:12.818Z,2.40
2023-03-12T21:40:01.445Z,2.20
2023-03-12T21:42:51.165Z,2.80
2023-03-12T21:45:41.720Z,2.40
2023-03-12T21:48:30.119Z,2.40
2023-03-12T21:51:19.724Z,2.40
2023-03-12T21:54:08.048Z,2.40
2023-03-12T21:56:56.280Z,2.50
2023-03-12T21:59:45.880Z,2.63
2023-03-12T22:02:34.701Z,2.70
2023-03-12T22:05:23.230Z,2.40
2023-03-12T22:08:11.428Z,2.67
2023-03-12T22:10:59.893Z,2.43
2023-03-12T22:13:48.160Z,2.57
2023-03-12T22:16:37.834Z,2.60
2023-03-12T22:19:26.106Z,2.47
2023-03-12T22:22:14.359Z,2.27
2023-03-12T22:25:02.517Z,2.87
2023-03-12T22:27:50.689Z,2.40
2023-03-12T22:30:38.872Z,2.40
2023-03-12T22:33:28.797Z,2.40
2023-03-12T22:36:18.238Z,2.30
2023-03-12T22:39:06.819Z,2.90
2023-03-12T22:41:56.042Z,2.50
2023-03-12T22:44:44.296Z,2.43
2023-03-12T22:47:32.475Z,2.00
2023-03-12T22:50:23.391Z,2.37
2023-03-12T22:53:11.543Z,1.97
2023-03-12T22:56:00.344Z,2.20
2023-03-12T22:58:49.422Z,2.23
2023-03-12T23:01:37.628Z,2.17
2023-03-12T23:04:25.961Z,2.63
2023-03-12T23:07:16.546Z,2.20
2023-03-12T23:10:06.464Z,2.10
2023-03-12T23:12:54.848Z,2.10
2023-03-12T23:15:43.117Z,2.47
2023-03-12T23:18:31.737Z,2.40
2023-03-12T23:21:21.616Z,2.27
2023-03-12T23:24:11.533Z,2.27
2023-03-12T23:27:00.307Z,2.10
2023-03-12T23:29:48.474Z,2.20
2023-03-12T23:32:36.768Z,2.27
2023-03-12T23:35:25.090Z,2.10
2023-03-12T23:38:13.340Z,2.10
2023-03-12T23:41:04.483Z,2.10
2023-03-12T23:43:54.006Z,2.03
2023-03-12T23:46:45.059Z,2.10
2023-03-12T23:49:33.299Z,2.40
2023-03-12T23:52:21.501Z,1.90
2023-03-12T23:55:10.595Z,1.90
2023-03-12T23:58:00.090Z,1.90
